CheckWX is a tool to help pilots better visualize weather data.  It is not intended as a substitute for an official pre-flight weather briefing.

13:57:18 UTC

4R5 METAR
Major Gilbert Field Airport
La Pointe, Wisconsin, USA
Current

22 mins ago

K4R5 261335Z AUTO 30009G20KT 10SM BKN033 OVC110 06/M01 A2991 RMK AO2 T00591013
Observed
Apr-26 @ 13:35 UTC
Wind
  • 300° at 9 KTS
  • Gusting to 20 KTS
Visibility
10 SM
Flight Rules
VFR
Cloud Levels
  • Broken at 3,300' AGL
  • Overcast at 11,000' AGL
Temperature
C / 43°F
Dewpoint
-1°C / 30°F
Humidity
61%
Altimeter
29.91" Hg
Pressure
1012.92 hPa
Previous

42 mins ago

K4R5 261315Z AUTO 32008G18KT 10SM BKN035 BKN110 06/M01 A2990 RMK AO2 T00561006
Observed
Apr-26 @ 13:15 UTC
Wind
  • 320° at 8 KTS
  • Gusting to 18 KTS
Visibility
10 SM
Flight Rules
VFR
Cloud Levels
  • Broken at 3,500' AGL
  • Broken at 11,000' AGL
Temperature
C / 43°F
Dewpoint
-1°C / 30°F
Humidity
61%
Altimeter
29.9" Hg
Pressure
1012.52 hPa
Previous

1 hour ago

K4R5 261255Z AUTO 30008G14KT 270V340 10SM BKN033 OVC110 06/00 A2990 RMK AO2 T00560000
Observed
Apr-26 @ 12:55 UTC
Wind
  • 300° at 8 KTS
  • Gusting to 14 KTS
Visibility
10 SM
Flight Rules
VFR
Cloud Levels
  • Broken at 3,300' AGL
  • Overcast at 11,000' AGL
Temperature
C / 43°F
Dewpoint
C / 32°F
Humidity
66%
Altimeter
29.9" Hg
Pressure
1012.52 hPa